createdAt,value
2018-07-23T00:01:34.304Z,101030.64
2018-07-23T00:04:39.711Z,101028.39
2018-07-23T00:07:44.872Z,101019.61
2018-07-23T00:10:52.245Z,101016.64
2018-07-23T00:13:58.005Z,101027.34
2018-07-23T00:17:04.949Z,101024.50
2018-07-23T00:20:11.046Z,101014.70
2018-07-23T00:23:16.168Z,101017.52
2018-07-23T00:26:21.315Z,101011.09
2018-07-23T00:29:26.504Z,101008.14
2018-07-23T00:32:31.678Z,101010.69
2018-07-23T00:35:37.663Z,101018.69
2018-07-23T00:38:43.306Z,101018.44
2018-07-23T00:41:49.771Z,101014.89
2018-07-23T00:44:55.975Z,101027.94
2018-07-23T00:48:01.725Z,101027.55
2018-07-23T00:51:07.531Z,101025.06
2018-07-23T00:54:12.671Z,101026.20
2018-07-23T00:57:17.896Z,101032.18
2018-07-23T01:00:23.070Z,101026.88
2018-07-23T01:03:27.954Z,101021.74
2018-07-23T01:06:34.088Z,101016.96
2018-07-23T01:09:40.126Z,101020.39
2018-07-23T01:12:46.276Z,101017.84
2018-07-23T01:15:52.354Z,101020.90
2018-07-23T01:18:58.170Z,101020.65
2018-07-23T01:22:05.298Z,101014.02
2018-07-23T01:25:11.620Z,101015.78
2018-07-23T01:28:17.258Z,101021.62
2018-07-23T01:31:23.379Z,101025.26
2018-07-23T01:34:29.307Z,101025.00
2018-07-23T01:37:35.067Z,101030.19
2018-07-23T01:40:40.809Z,101025.98
2018-07-23T01:43:46.478Z,101027.02
2018-07-23T01:46:52.858Z,101029.72
2018-07-23T01:49:57.974Z,101028.61
2018-07-23T01:53:03.629Z,101026.33
2018-07-23T01:56:10.102Z,101027.16
2018-07-23T01:59:16.075Z,101031.62
2018-07-23T02:02:22.483Z,101040.33
2018-07-23T02:05:28.069Z,101040.91
2018-07-23T02:08:33.190Z,101040.94
2018-07-23T02:11:38.690Z,101043.52
2018-07-23T02:14:43.802Z,101041.04
2018-07-23T02:17:48.944Z,101038.08
2018-07-23T02:20:54.437Z,101047.26
2018-07-23T02:24:00.021Z,101041.42
2018-07-23T02:27:05.231Z,101047.28
2018-07-23T02:30:10.974Z,101052.56
2018-07-23T02:33:16.082Z,101055.27
2018-07-23T02:36:21.238Z,101052.30
2018-07-23T02:39:26.374Z,101054.92
2018-07-23T02:42:31.722Z,101056.21
2018-07-23T02:45:36.839Z,101053.07
2018-07-23T02:48:42.167Z,101054.94
2018-07-23T02:51:47.314Z,101050.69
2018-07-23T02:54:52.446Z,101063.07
2018-07-23T02:57:58.220Z,101063.02
2018-07-23T03:01:03.342Z,101059.59
2018-07-23T03:04:09.498Z,101064.88
2018-07-23T03:07:15.234Z,101055.45
2018-07-23T03:10:21.226Z,101053.60
2018-07-23T03:13:28.258Z,101050.48
2018-07-23T03:16:34.623Z,101052.05
2018-07-23T03:19:40.251Z,101056.13
2018-07-23T03:22:46.343Z,101057.42
2018-07-23T03:25:52.814Z,101057.96
2018-07-23T03:28:59.266Z,101059.42
2018-07-23T03:32:06.674Z,101060.36
2018-07-23T03:35:12.510Z,101062.42
2018-07-23T03:38:17.653Z,101065.38
2018-07-23T03:41:23.934Z,101069.25
2018-07-23T03:44:29.806Z,101069.89
2018-07-23T03:47:34.926Z,101074.60
2018-07-23T03:50:40.451Z,101076.09
2018-07-23T03:53:46.598Z,101081.17
2018-07-23T03:56:52.371Z,101080.34
2018-07-23T03:59:57.750Z,101079.61
2018-07-23T04:03:03.526Z,101081.37
2018-07-23T04:06:09.186Z,101083.23
2018-07-23T04:09:14.309Z,101089.34
2018-07-23T04:12:19.466Z,101086.09
2018-07-23T04:15:25.998Z,101087.22
2018-07-23T04:18:32.314Z,101093.31
2018-07-23T04:21:38.658Z,101091.09
2018-07-23T04:24:44.501Z,101096.91
2018-07-23T04:27:49.630Z,101096.17
2018-07-23T04:30:54.803Z,101103.94
2018-07-23T04:33:59.954Z,101101.78
2018-07-23T04:37:06.614Z,101095.05
2018-07-23T04:40:12.133Z,101097.63
2018-07-23T04:43:17.290Z,101099.95
2018-07-23T04:46:23.360Z,101101.61
2018-07-23T04:49:29.328Z,101097.43
2018-07-23T04:52:34.830Z,101104.56
2018-07-23T04:55:40.295Z,101099.73
2018-07-23T04:58:45.469Z,101105.48
2018-07-23T05:01:51.474Z,101108.44
2018-07-23T05:04:57.490Z,101105.28
2018-07-23T05:08:03.399Z,101111.02
2018-07-23T05:11:09.428Z,101110.25
2018-07-23T05:14:16.116Z,101115.89
2018-07-23T05:17:23.133Z,101116.15
2018-07-23T05:20:29.363Z,101124.27
2018-07-23T05:23:36.688Z,101119.80
2018-07-23T05:26:42.731Z,101126.59
2018-07-23T05:29:48.735Z,101126.94
2018-07-23T05:32:54.839Z,101129.61
2018-07-23T05:36:00.908Z,101130.95
2018-07-23T05:39:09.081Z,101135.75
2018-07-23T05:42:15.126Z,101133.20
2018-07-23T05:45:21.215Z,101139.77
2018-07-23T05:48:28.634Z,101132.97
2018-07-23T05:51:35.571Z,101133.95
2018-07-23T05:54:41.927Z,101134.12
2018-07-23T05:57:47.831Z,101138.09
2018-07-23T06:00:54.659Z,101136.04
2018-07-23T06:04:01.250Z,101139.97
2018-07-23T06:07:07.010Z,101139.20
2018-07-23T06:10:12.874Z,101141.02
2018-07-23T06:13:18.643Z,101138.95
2018-07-23T06:16:24.457Z,101146.30
2018-07-23T06:19:30.329Z,101146.38
2018-07-23T06:22:35.477Z,101146.41
2018-07-23T06:25:40.895Z,101145.17
2018-07-23T06:28:46.892Z,101153.34
2018-07-23T06:31:51.794Z,101145.15
2018-07-23T06:34:57.163Z,101154.27
2018-07-23T06:38:02.809Z,101150.78
2018-07-23T06:41:09.214Z,101158.87
2018-07-23T06:44:14.374Z,101160.09
2018-07-23T06:47:19.518Z,101159.09
2018-07-23T06:50:25.413Z,101162.48
2018-07-23T06:53:32.124Z,101158.02
2018-07-23T06:56:38.114Z,101160.67
2018-07-23T06:59:43.294Z,101152.80
2018-07-23T07:02:49.605Z,101157.19
2018-07-23T07:05:56.442Z,101151.65
2018-07-23T07:09:02.830Z,101153.34
2018-07-23T07:12:09.496Z,101153.83
2018-07-23T07:15:15.539Z,101160.61
2018-07-23T07:18:21.610Z,101154.62
2018-07-23T07:21:28.510Z,101155.45
2018-07-23T07:24:34.506Z,101158.80
2018-07-23T07:27:40.158Z,101163.91
2018-07-23T07:30:45.332Z,101158.59
2018-07-23T07:33:50.487Z,101158.19
2018-07-23T07:36:55.638Z,101166.22
2018-07-23T07:40:01.230Z,101160.57
2018-07-23T07:43:06.129Z,101165.68
2018-07-23T07:46:11.920Z,101164.25
2018-07-23T07:49:17.080Z,101161.08
2018-07-23T07:52:23.594Z,101167.37
2018-07-23T07:55:29.930Z,101168.92
2018-07-23T07:58:35.848Z,101164.28
2018-07-23T08:01:42.053Z,101167.12
2018-07-23T08:04:48.914Z,101171.27
2018-07-23T08:07:54.649Z,101163.31
2018-07-23T08:10:59.755Z,101161.33
2018-07-23T08:14:04.950Z,101164.30
2018-07-23T08:17:10.174Z,101168.78
2018-07-23T08:20:16.501Z,101166.38
2018-07-23T08:23:22.571Z,101169.69
2018-07-23T08:26:29.098Z,101164.22
2018-07-23T08:29:34.692Z,101162.31
2018-07-23T08:32:40.989Z,101164.14
2018-07-23T08:35:46.903Z,101169.31
2018-07-23T08:38:52.397Z,101162.05
2018-07-23T08:41:57.725Z,101163.81
2018-07-23T08:45:04.312Z,101163.06
2018-07-23T08:48:11.133Z,101174.27
2018-07-23T08:51:17.094Z,101173.23
2018-07-23T08:54:23.159Z,101175.91
2018-07-23T08:57:28.392Z,101167.78
2018-07-23T09:00:34.610Z,101166.05
2018-07-23T09:03:40.729Z,101167.88
2018-07-23T09:06:46.786Z,101169.72
2018-07-23T09:09:53.636Z,101173.19
2018-07-23T09:12:59.573Z,101171.44
2018-07-23T09:16:06.057Z,101165.77
2018-07-23T09:19:12.132Z,101170.20
2018-07-23T09:22:18.850Z,101176.28
2018-07-23T09:25:29.127Z,101173.20
2018-07-23T09:28:34.631Z,101177.34
2018-07-23T09:31:40.688Z,101178.56
2018-07-23T09:34:46.762Z,101171.06
2018-07-23T09:37:52.970Z,101175.47
2018-07-23T09:40:58.112Z,101170.58
2018-07-23T09:44:03.913Z,101171.11
2018-07-23T09:47:09.485Z,101167.52
2018-07-23T09:50:14.655Z,101166.87
2018-07-23T09:53:21.039Z,101163.82
2018-07-23T09:56:26.958Z,101166.34
2018-07-23T09:59:32.881Z,101163.88
2018-07-23T10:02:38.013Z,101171.85
2018-07-23T10:05:44.174Z,101169.50
2018-07-23T10:08:49.970Z,101172.96
2018-07-23T10:11:55.142Z,101164.72
2018-07-23T10:15:01.171Z,101157.36
2018-07-23T10:18:07.057Z,101161.98
2018-07-23T10:21:12.258Z,101156.07
2018-07-23T10:24:17.744Z,101154.12
2018-07-23T10:27:22.899Z,101153.02
2018-07-23T10:30:28.105Z,101146.14
2018-07-23T10:33:33.277Z,101158.46
2018-07-23T10:36:39.994Z,101153.21
2018-07-23T10:39:46.187Z,101155.02
2018-07-23T10:42:52.626Z,101148.13
2018-07-23T10:45:57.763Z,101150.25
2018-07-23T10:49:02.982Z,101153.21
2018-07-23T10:52:10.074Z,101152.28
2018-07-23T10:55:16.057Z,101155.95
2018-07-23T10:58:21.188Z,101153.55
2018-07-23T11:01:27.602Z,101153.90
2018-07-23T11:04:33.335Z,101152.43
2018-07-23T11:07:39.570Z,101140.30
2018-07-23T11:10:45.563Z,101145.27
2018-07-23T11:13:52.034Z,101141.52
2018-07-23T11:16:57.957Z,101147.64
2018-07-23T11:20:03.835Z,101155.87
2018-07-23T11:23:09.820Z,101154.11
2018-07-23T11:26:16.162Z,101161.67
2018-07-23T11:29:21.830Z,101157.91
2018-07-23T11:32:27.008Z,101159.72
2018-07-23T11:35:32.159Z,101162.06
2018-07-23T11:38:37.658Z,101154.69
2018-07-23T11:41:42.802Z,101156.01
2018-07-23T11:44:48.236Z,101159.98
2018-07-23T11:47:54.343Z,101158.72
2018-07-23T11:51:00.482Z,101154.62
2018-07-23T11:54:07.571Z,101157.61
2018-07-23T11:57:13.904Z,101155.16
2018-07-23T12:00:19.583Z,101158.61
2018-07-23T12:03:24.949Z,101151.59
2018-07-23T12:06:32.029Z,101153.73
2018-07-23T12:09:37.789Z,101154.39
2018-07-23T12:12:44.831Z,101164.12
2018-07-23T12:15:50.870Z,101163.14
2018-07-23T12:18:57.001Z,101160.19
2018-07-23T12:22:02.146Z,101158.70
2018-07-23T12:25:07.521Z,101155.41
2018-07-23T12:28:12.367Z,101157.39
2018-07-23T12:31:17.835Z,101157.55
2018-07-23T12:34:23.942Z,101156.23
2018-07-23T12:37:29.888Z,101154.14
2018-07-23T12:40:35.886Z,101156.44
2018-07-23T12:43:42.993Z,101161.57
2018-07-23T12:46:48.683Z,101160.25
2018-07-23T12:49:54.761Z,101150.23
2018-07-23T12:53:02.072Z,101152.06
2018-07-23T12:56:07.914Z,101149.11
2018-07-23T12:59:13.846Z,101149.11
2018-07-23T13:02:19.072Z,101154.06
2018-07-23T13:05:30.175Z,101154.23
2018-07-23T13:08:35.291Z,101157.36
2018-07-23T13:11:41.766Z,101155.55
2018-07-23T13:14:48.876Z,101150.42
2018-07-23T13:17:54.909Z,101156.05
2018-07-23T13:21:01.234Z,101153.25
2018-07-23T13:24:07.412Z,101153.11
2018-07-23T13:27:13.523Z,101148.80
2018-07-23T13:30:19.961Z,101148.17
2018-07-23T13:33:26.048Z,101149.66
2018-07-23T13:36:32.067Z,101153.44
2018-07-23T13:39:37.232Z,101142.09
2018-07-23T13:42:43.834Z,101148.02
2018-07-23T13:45:49.716Z,101144.06
2018-07-23T13:48:55.586Z,101141.27
2018-07-23T13:52:01.556Z,101144.55
2018-07-23T13:55:07.977Z,101133.20
2018-07-23T13:58:13.554Z,101139.31
2018-07-23T14:01:19.433Z,101144.24
2018-07-23T14:04:24.794Z,101145.09
2018-07-23T14:07:29.911Z,101147.23
2018-07-23T14:10:35.056Z,101149.36
2018-07-23T14:13:40.201Z,101147.55
2018-07-23T14:16:45.522Z,101144.23
2018-07-23T14:19:50.703Z,101143.91
2018-07-23T14:22:56.244Z,101144.41
2018-07-23T14:26:02.650Z,101143.42
2018-07-23T14:29:08.047Z,101145.56
2018-07-23T14:32:13.186Z,101144.41
2018-07-23T14:35:18.318Z,101139.95
2018-07-23T14:38:23.451Z,101135.51
2018-07-23T14:41:28.634Z,101136.66
2018-07-23T14:44:33.802Z,101135.53
2018-07-23T14:47:38.944Z,101128.31
2018-07-23T14:50:45.939Z,101128.16
2018-07-23T14:53:51.707Z,101127.64
2018-07-23T14:56:56.930Z,101128.13
2018-07-23T15:00:03.025Z,101122.36
2018-07-23T15:03:09.409Z,101122.38
2018-07-23T15:06:15.290Z,101124.17
2018-07-23T15:09:20.447Z,101118.89
2018-07-23T15:12:26.875Z,101122.83
2018-07-23T15:15:32.561Z,101120.15
2018-07-23T15:18:37.722Z,101127.72
2018-07-23T15:21:51.107Z,101120.63
2018-07-23T15:24:56.548Z,101122.43
2018-07-23T15:28:03.124Z,101116.81
2018-07-23T15:31:09.123Z,101122.20
2018-07-23T15:34:14.286Z,101122.34
2018-07-23T15:37:20.834Z,101124.31
2018-07-23T15:40:26.971Z,101121.47
2018-07-23T15:43:32.687Z,101114.69
2018-07-23T15:46:38.885Z,101113.66
2018-07-23T15:49:44.883Z,101113.97
2018-07-23T15:52:50.990Z,101106.70
2018-07-23T15:55:56.791Z,101104.88
2018-07-23T15:59:02.650Z,101109.48
2018-07-23T16:02:08.736Z,101105.16
2018-07-23T16:05:15.999Z,101097.75
2018-07-23T16:08:22.235Z,101102.70
2018-07-23T16:11:28.260Z,101094.16
2018-07-23T16:14:35.356Z,101100.56
2018-07-23T16:17:41.321Z,101102.88
2018-07-23T16:20:47.449Z,101103.20
2018-07-23T16:23:54.815Z,101102.74
2018-07-23T16:27:00.837Z,101093.69
2018-07-23T16:30:09.209Z,101097.52
2018-07-23T16:33:15.217Z,101095.38
2018-07-23T16:36:21.328Z,101089.45
2018-07-23T16:39:27.437Z,101087.31
2018-07-23T16:42:33.518Z,101089.45
2018-07-23T16:45:38.722Z,101095.41
2018-07-23T16:48:44.141Z,101099.41
2018-07-23T16:51:49.348Z,101098.27
2018-07-23T16:54:55.776Z,101096.47
2018-07-23T16:58:01.001Z,101093.69
2018-07-23T17:01:06.740Z,101094.05
2018-07-23T17:04:15.574Z,101091.44
2018-07-23T17:07:22.865Z,101090.13
2018-07-23T17:10:30.219Z,101095.39
2018-07-23T17:13:35.408Z,101086.84
2018-07-23T17:16:41.818Z,101090.49
2018-07-23T17:19:48.097Z,101088.88
2018-07-23T17:22:53.238Z,101090.86
2018-07-23T17:25:58.907Z,101093.84
2018-07-23T17:29:06.597Z,101091.88
2018-07-23T17:32:12.213Z,101089.44
2018-07-23T17:35:18.114Z,101094.87
2018-07-23T17:38:25.105Z,101095.23
2018-07-23T17:41:31.123Z,101089.62
2018-07-23T17:44:36.356Z,101095.09
2018-07-23T17:47:42.591Z,101090.94
2018-07-23T17:50:48.440Z,101088.95
2018-07-23T17:53:53.598Z,101087.83
2018-07-23T17:56:58.794Z,101094.23
2018-07-23T18:00:04.985Z,101085.38
2018-07-23T18:03:10.569Z,101087.66
2018-07-23T18:06:17.995Z,101091.47
2018-07-23T18:09:24.089Z,101093.92
2018-07-23T18:12:29.797Z,101090.61
2018-07-23T18:15:35.921Z,101102.63
2018-07-23T18:18:41.140Z,101101.45
2018-07-23T18:21:46.349Z,101099.95
2018-07-23T18:24:52.403Z,101104.03
2018-07-23T18:27:58.579Z,101101.41
2018-07-23T18:31:04.682Z,101106.81
2018-07-23T18:34:10.745Z,101107.59
2018-07-23T18:37:16.095Z,101108.58
2018-07-23T18:40:22.466Z,101112.82
2018-07-23T18:43:28.684Z,101118.41
2018-07-23T18:46:35.565Z,101121.16
2018-07-23T18:50:02.860Z,101117.17
2018-07-23T18:53:32.607Z,101121.89
2018-07-23T18:56:52.861Z,101123.48
2018-07-23T19:00:04.479Z,101131.31
2018-07-23T19:03:10.382Z,101131.63
2018-07-23T19:06:15.542Z,101131.90
2018-07-23T19:09:22.561Z,101131.70
2018-07-23T19:12:28.786Z,101136.25
2018-07-23T19:15:34.379Z,101137.83
2018-07-23T19:18:39.654Z,101137.30
2018-07-23T19:21:45.710Z,101141.50
2018-07-23T19:24:53.831Z,101145.19
2018-07-23T19:27:59.823Z,101147.77
2018-07-23T19:31:05.974Z,101148.02
2018-07-23T19:34:11.448Z,101146.63
2018-07-23T19:37:17.520Z,101144.77
2018-07-23T19:40:23.630Z,101141.23
2018-07-23T19:43:28.766Z,101151.16
2018-07-23T19:46:33.917Z,101152.03
2018-07-23T19:49:39.074Z,101157.83
2018-07-23T19:52:44.740Z,101163.45
2018-07-23T19:55:50.462Z,101165.97
2018-07-23T19:58:56.588Z,101173.24
2018-07-23T20:02:02.430Z,101168.72
2018-07-23T20:05:09.513Z,101165.34
2018-07-23T20:08:15.717Z,101159.16
2018-07-23T20:11:22.399Z,101167.58
2018-07-23T20:14:28.857Z,101163.56
2018-07-23T20:17:35.354Z,101162.13
2018-07-23T20:20:41.390Z,101163.13
2018-07-23T20:23:47.474Z,101158.97
2018-07-23T20:26:53.729Z,101163.10
2018-07-23T20:30:00.697Z,101158.56
2018-07-23T20:33:06.670Z,101159.28
2018-07-23T20:36:12.551Z,101163.41
2018-07-23T20:39:18.582Z,101159.20
2018-07-23T20:42:24.049Z,101160.73
2018-07-23T20:45:29.993Z,101159.97
2018-07-23T20:48:36.082Z,101156.23
2018-07-23T20:51:42.141Z,101154.67
2018-07-23T20:54:48.050Z,101156.14
2018-07-23T20:57:53.270Z,101153.75
2018-07-23T21:00:59.722Z,101159.84
2018-07-23T21:04:06.464Z,101160.03
2018-07-23T21:07:13.786Z,101160.11
2018-07-23T21:10:19.745Z,101151.00
2018-07-23T21:13:25.802Z,101161.05
2018-07-23T21:16:31.269Z,101163.84
2018-07-23T21:19:37.500Z,101164.73
2018-07-23T21:22:42.763Z,101168.22
2018-07-23T21:25:48.299Z,101170.06
2018-07-23T21:28:53.450Z,101172.61
2018-07-23T21:31:58.551Z,101175.59
2018-07-23T21:35:04.790Z,101172.09
2018-07-23T21:38:09.913Z,101172.56
2018-07-23T21:41:15.035Z,101171.80
2018-07-23T21:44:20.396Z,101172.31
2018-07-23T21:47:25.542Z,101173.19
2018-07-23T21:50:31.567Z,101182.84
2018-07-23T21:53:38.165Z,101174.68
2018-07-23T21:56:44.031Z,101174.39
2018-07-23T21:59:50.190Z,101183.45
2018-07-23T22:02:57.018Z,101188.68
2018-07-23T22:06:03.382Z,101178.52
2018-07-23T22:09:10.094Z,101179.39
2018-07-23T22:12:16.403Z,101178.58
2018-07-23T22:15:22.079Z,101184.45
2018-07-23T22:18:28.088Z,101186.47
2018-07-23T22:21:34.510Z,101183.52
2018-07-23T22:24:41.818Z,101183.27
2018-07-23T22:27:47.676Z,101183.31
2018-07-23T22:30:52.794Z,101179.53
2018-07-23T22:33:57.931Z,101176.61
2018-07-23T22:37:04.315Z,101179.09
2018-07-23T22:40:11.208Z,101186.13
2018-07-23T22:43:16.874Z,101180.78
2018-07-23T22:46:21.758Z,101186.03
2018-07-23T22:49:27.900Z,101188.28
2018-07-23T22:52:34.070Z,101184.15
2018-07-23T22:55:39.230Z,101184.27
2018-07-23T22:58:44.878Z,101182.97
2018-07-23T23:01:52.281Z,101180.39
2018-07-23T23:04:58.217Z,101182.77
2018-07-23T23:08:03.991Z,101185.27
2018-07-23T23:11:11.062Z,101182.52
2018-07-23T23:14:17.042Z,101187.51
2018-07-23T23:17:23.077Z,101191.66
2018-07-23T23:20:28.295Z,101190.67
2018-07-23T23:23:34.370Z,101191.62
2018-07-23T23:26:40.298Z,101192.22
2018-07-23T23:29:46.196Z,101184.42
2018-07-23T23:32:52.153Z,101187.24
2018-07-23T23:35:57.315Z,101187.48
2018-07-23T23:39:03.423Z,101189.51
2018-07-23T23:42:08.258Z,101183.59
2018-07-23T23:45:13.926Z,101189.14
2018-07-23T23:48:19.041Z,101180.39
2018-07-23T23:51:25.997Z,101173.17
2018-07-23T23:54:33.742Z,101172.44
2018-07-23T23:57:39.672Z,101175.28
